createdAt,value
2017-10-23T00:00:37.525Z,99.08
2017-10-23T00:03:06.562Z,98.71
2017-10-23T00:05:35.586Z,98.83
2017-10-23T00:08:04.621Z,98.87
2017-10-23T00:10:33.677Z,98.69
2017-10-23T00:13:02.783Z,98.49
2017-10-23T00:15:31.786Z,98.37
2017-10-23T00:18:00.825Z,98.29
2017-10-23T00:20:29.868Z,98.45
2017-10-23T00:22:58.902Z,98.78
2017-10-23T00:25:28.026Z,98.44
2017-10-23T00:27:57.057Z,98.32
2017-10-23T00:30:26.099Z,97.61
2017-10-23T00:32:55.135Z,97.58
2017-10-23T00:35:24.168Z,98.07
2017-10-23T00:37:53.198Z,97.51
2017-10-23T00:40:22.249Z,97.24
2017-10-23T00:42:52.215Z,96.66
2017-10-23T00:45:21.301Z,96.49
2017-10-23T00:47:50.330Z,96.39
2017-10-23T00:50:19.354Z,95.82
2017-10-23T00:52:48.402Z,95.59
2017-10-23T00:55:17.443Z,95.49
2017-10-23T00:57:46.471Z,96.07
2017-10-23T01:00:15.511Z,96.43
2017-10-23T01:02:44.558Z,96.40
2017-10-23T01:05:13.590Z,96.31
2017-10-23T01:07:42.628Z,96.01
2017-10-23T01:10:11.662Z,95.84
2017-10-23T01:12:40.886Z,95.88
2017-10-23T01:15:09.917Z,95.57
2017-10-23T01:17:38.937Z,94.78
2017-10-23T01:20:07.984Z,94.62
2017-10-23T01:22:37.012Z,94.14
2017-10-23T01:25:06.069Z,95.39
2017-10-23T01:27:35.087Z,94.79
2017-10-23T01:30:04.163Z,94.81
2017-10-23T01:32:33.224Z,94.20
2017-10-23T01:35:02.256Z,94.37
2017-10-23T01:37:31.287Z,94.65
2017-10-23T01:40:00.326Z,94.68
2017-10-23T01:42:29.562Z,95.25
2017-10-23T01:44:58.592Z,94.63
2017-10-23T01:47:28.582Z,94.17
2017-10-23T01:49:57.628Z,93.74
2017-10-23T01:52:27.602Z,93.69
2017-10-23T01:54:56.652Z,94.56
2017-10-23T01:57:25.682Z,94.65
2017-10-23T01:59:54.723Z,94.67
2017-10-23T02:02:23.911Z,94.49
2017-10-23T02:04:52.936Z,94.54
2017-10-23T02:07:21.957Z,94.03
2017-10-23T02:09:50.998Z,93.77
2017-10-23T02:12:20.027Z,94.24
2017-10-23T02:14:49.350Z,94.28
2017-10-23T02:17:18.376Z,94.25
2017-10-23T02:19:48.418Z,94.55
2017-10-23T02:22:17.451Z,94.71
2017-10-23T02:24:46.478Z,94.79
2017-10-23T02:27:15.535Z,95.07
2017-10-23T02:29:44.571Z,94.97
2017-10-23T02:32:13.615Z,94.81
2017-10-23T02:34:42.644Z,95.08
2017-10-23T02:37:11.670Z,95.30
2017-10-23T02:39:41.651Z,95.00
2017-10-23T02:42:10.683Z,94.82
2017-10-23T02:44:39.723Z,94.61
2017-10-23T02:47:08.761Z,94.64
2017-10-23T02:49:37.796Z,94.53
2017-10-23T02:52:06.837Z,94.30
2017-10-23T02:54:35.882Z,94.21
2017-10-23T02:57:04.948Z,93.68
2017-10-23T02:59:34.027Z,93.58
2017-10-23T03:02:03.040Z,93.21
2017-10-23T03:04:32.070Z,92.91
2017-10-23T03:07:01.104Z,92.94
2017-10-23T03:09:30.555Z,93.03
2017-10-23T03:11:59.603Z,92.02
2017-10-23T03:14:28.638Z,91.89
2017-10-23T03:16:57.671Z,91.83
2017-10-23T03:19:27.019Z,91.86
2017-10-23T03:21:56.054Z,91.54
2017-10-23T03:24:26.150Z,91.65
2017-10-23T03:26:55.179Z,91.75
2017-10-23T03:29:25.159Z,91.66
2017-10-23T03:31:54.201Z,91.72
2017-10-23T03:34:23.256Z,91.62
2017-10-23T03:36:52.310Z,90.84
2017-10-23T03:39:21.344Z,90.44
2017-10-23T03:41:51.265Z,90.86
2017-10-23T03:44:20.295Z,90.32
2017-10-23T03:46:50.298Z,90.48
2017-10-23T03:49:19.366Z,90.62
2017-10-23T03:51:48.396Z,90.25
2017-10-23T03:54:17.442Z,90.28
2017-10-23T03:56:47.388Z,90.73
2017-10-23T03:59:16.442Z,90.78
2017-10-23T04:01:47.436Z,90.72
2017-10-23T04:04:16.483Z,90.75
2017-10-23T04:06:45.506Z,90.89
2017-10-23T04:09:14.567Z,91.15
2017-10-23T04:11:47.138Z,90.23
2017-10-23T04:14:16.191Z,90.52
2017-10-23T04:16:45.218Z,90.11
2017-10-23T04:19:14.263Z,90.17
2017-10-23T04:21:43.321Z,89.59
2017-10-23T04:24:12.346Z,89.45
2017-10-23T04:26:41.371Z,88.87
2017-10-23T04:29:10.415Z,89.37
2017-10-23T04:31:39.456Z,90.01
2017-10-23T04:34:08.510Z,89.54
2017-10-23T04:36:39.449Z,89.91
2017-10-23T04:39:08.470Z,90.66
2017-10-23T04:41:37.536Z,90.92
2017-10-23T04:44:06.614Z,89.86
2017-10-23T04:46:35.657Z,90.60
2017-10-23T04:49:04.764Z,90.25
2017-10-23T04:51:33.770Z,90.22
2017-10-23T04:54:02.932Z,90.66
2017-10-23T04:56:31.991Z,90.71
2017-10-23T04:59:01.033Z,90.93
2017-10-23T05:01:31.086Z,90.54
2017-10-23T05:04:00.130Z,90.47
2017-10-23T05:06:29.182Z,90.15
2017-10-23T05:08:58.211Z,90.12
2017-10-23T05:11:27.248Z,90.29
2017-10-23T05:13:56.305Z,89.67
2017-10-23T05:16:25.326Z,89.69
2017-10-23T05:18:54.402Z,89.64
2017-10-23T05:21:23.440Z,90.19
2017-10-23T05:23:52.467Z,90.44
2017-10-23T05:26:21.775Z,90.43
2017-10-23T05:28:50.833Z,90.24
2017-10-23T05:31:19.862Z,90.17
2017-10-23T05:33:49.866Z,90.03
2017-10-23T05:36:18.920Z,90.37
2017-10-23T05:38:47.944Z,89.66
2017-10-23T05:41:17.116Z,90.56
2017-10-23T05:43:46.148Z,90.41
2017-10-23T05:46:15.170Z,90.69
2017-10-23T05:48:44.215Z,90.43
2017-10-23T05:51:13.248Z,90.29
2017-10-23T05:53:42.282Z,89.77
2017-10-23T05:56:11.396Z,89.70
2017-10-23T05:58:40.415Z,89.75
2017-10-23T06:01:09.461Z,89.69
2017-10-23T06:03:38.483Z,90.20
2017-10-23T06:06:07.528Z,89.98
2017-10-23T06:08:36.564Z,90.07
2017-10-23T06:11:05.595Z,90.36
2017-10-23T06:13:37.901Z,90.44
2017-10-23T06:16:06.982Z,90.34
2017-10-23T06:18:36.037Z,89.89
2017-10-23T06:21:05.074Z,89.80
2017-10-23T06:23:34.120Z,89.81
2017-10-23T06:26:03.182Z,89.75
2017-10-23T06:28:32.249Z,90.48
2017-10-23T06:31:01.275Z,90.28
2017-10-23T06:33:30.307Z,90.10
2017-10-23T06:35:59.544Z,91.19
2017-10-23T06:38:28.583Z,91.30
2017-10-23T06:40:57.603Z,91.76
2017-10-23T06:43:26.661Z,92.29
2017-10-23T06:45:55.682Z,92.10
2017-10-23T06:48:24.911Z,92.07
2017-10-23T06:50:53.943Z,92.25
2017-10-23T06:53:22.978Z,91.98
2017-10-23T06:55:52.026Z,92.54
2017-10-23T06:58:21.049Z,92.24
2017-10-23T07:00:53.882Z,91.99
2017-10-23T07:03:22.918Z,91.64
2017-10-23T07:05:53.072Z,91.82
2017-10-23T07:08:22.107Z,90.27
2017-10-23T07:10:51.155Z,90.49
2017-10-23T07:13:20.535Z,90.12
2017-10-23T07:15:50.662Z,89.83
2017-10-23T07:18:20.670Z,89.78
2017-10-23T07:20:49.900Z,89.80
2017-10-23T07:23:19.952Z,88.97
2017-10-23T07:25:48.987Z,89.44
2017-10-23T07:28:18.032Z,89.09
2017-10-23T07:30:48.062Z,89.34
2017-10-23T07:33:17.075Z,88.63
2017-10-23T07:35:46.141Z,89.15
2017-10-23T07:38:15.150Z,89.14
2017-10-23T07:40:44.188Z,88.54
2017-10-23T07:43:13.222Z,88.90
2017-10-23T07:45:42.255Z,88.04
2017-10-23T07:48:11.327Z,88.04
2017-10-23T07:50:40.373Z,87.73
2017-10-23T07:53:09.394Z,87.02
2017-10-23T07:55:40.437Z,87.04
2017-10-23T07:58:09.504Z,87.47
2017-10-23T08:00:38.526Z,87.17
2017-10-23T08:03:07.582Z,86.00
2017-10-23T08:05:37.658Z,85.79
2017-10-23T08:08:06.667Z,85.87
2017-10-23T08:10:39.614Z,86.20
2017-10-23T08:13:08.642Z,84.86
2017-10-23T08:15:37.759Z,84.26
2017-10-23T08:18:06.770Z,83.54
2017-10-23T08:20:35.808Z,84.78
2017-10-23T08:23:05.832Z,84.51
2017-10-23T08:25:34.870Z,83.18
2017-10-23T08:28:04.994Z,82.06
2017-10-23T08:30:34.970Z,82.61
2017-10-23T08:33:04.006Z,82.76
2017-10-23T08:35:33.054Z,82.42
2017-10-23T08:38:02.091Z,82.13
2017-10-23T08:40:31.122Z,80.59
2017-10-23T08:43:05.426Z,80.89
2017-10-23T08:45:35.530Z,81.21
2017-10-23T08:48:04.641Z,80.88
2017-10-23T08:50:34.178Z,81.25
2017-10-23T08:53:03.235Z,81.40
2017-10-23T08:55:36.138Z,79.94
2017-10-23T08:58:06.243Z,80.22
2017-10-23T09:00:36.220Z,80.60
2017-10-23T09:03:05.263Z,79.59
2017-10-23T09:05:42.811Z,80.17
2017-10-23T09:08:12.146Z,79.75
2017-10-23T09:10:41.226Z,77.96
2017-10-23T09:13:10.260Z,78.22
2017-10-23T09:15:39.761Z,77.56
2017-10-23T09:18:08.776Z,77.99
2017-10-23T09:20:37.804Z,77.08
2017-10-23T09:23:08.757Z,77.61
2017-10-23T09:25:38.688Z,78.16
2017-10-23T09:28:08.623Z,78.63
2017-10-23T09:30:37.656Z,77.88
2017-10-23T09:33:06.747Z,76.75
2017-10-23T09:35:35.789Z,76.20
2017-10-23T09:38:04.817Z,77.38
2017-10-23T09:40:33.860Z,75.75
2017-10-23T09:43:03.822Z,75.18
2017-10-23T09:45:32.856Z,75.75
2017-10-23T09:48:01.900Z,75.88
2017-10-23T09:50:32.890Z,76.31
2017-10-23T09:53:01.932Z,77.21
2017-10-23T09:55:31.194Z,75.38
2017-10-23T09:58:01.208Z,72.96
2017-10-23T10:00:30.245Z,72.96
2017-10-23T10:02:59.304Z,73.35
2017-10-23T10:05:32.397Z,73.27
2017-10-23T10:08:03.442Z,73.40
2017-10-23T10:10:32.472Z,72.70
2017-10-23T10:13:01.511Z,73.38
2017-10-23T10:15:30.558Z,72.12
2017-10-23T10:18:00.679Z,74.00
2017-10-23T10:20:30.650Z,72.53
2017-10-23T10:22:59.682Z,74.12
2017-10-23T10:25:28.728Z,72.35
2017-10-23T10:27:58.026Z,71.97
2017-10-23T10:30:27.054Z,72.51
2017-10-23T10:32:56.119Z,70.62
2017-10-23T10:35:25.158Z,69.82
2017-10-23T10:37:54.191Z,70.43
2017-10-23T10:40:23.230Z,69.69
2017-10-23T10:42:52.270Z,69.66
2017-10-23T10:45:21.315Z,70.43
2017-10-23T10:47:51.384Z,69.37
2017-10-23T10:50:20.465Z,69.93
2017-10-23T10:52:49.507Z,70.22
2017-10-23T10:55:18.538Z,69.63
2017-10-23T10:57:47.915Z,67.21
2017-10-23T11:00:16.964Z,65.43
2017-10-23T11:02:46.604Z,65.48
2017-10-23T11:05:15.640Z,66.83
2017-10-23T11:07:45.457Z,62.40
2017-10-23T11:10:14.484Z,61.00
2017-10-23T11:12:44.621Z,62.99
2017-10-23T11:15:13.676Z,65.70
2017-10-23T11:17:43.751Z,68.29
2017-10-23T11:20:12.794Z,66.44
2017-10-23T11:22:43.690Z,67.22
2017-10-23T11:25:12.742Z,67.63
2017-10-23T11:27:41.804Z,65.91
2017-10-23T11:30:10.826Z,65.65
2017-10-23T11:32:40.839Z,65.89
2017-10-23T11:35:09.907Z,64.50
2017-10-23T11:37:38.970Z,65.64
2017-10-23T11:40:08.012Z,65.36
2017-10-23T11:42:37.088Z,66.42
2017-10-23T11:45:08.039Z,67.73
2017-10-23T11:47:37.107Z,67.56
2017-10-23T11:50:06.146Z,68.23
2017-10-23T11:52:36.152Z,68.11
2017-10-23T11:55:05.207Z,69.48
2017-10-23T11:57:35.183Z,69.03
2017-10-23T12:00:04.377Z,69.28
2017-10-23T12:02:33.430Z,70.27
2017-10-23T12:05:04.482Z,70.09
2017-10-23T12:07:34.447Z,69.91
2017-10-23T12:10:04.478Z,69.67
2017-10-23T12:12:33.518Z,70.23
2017-10-23T12:15:02.562Z,70.01
2017-10-23T12:17:31.616Z,68.79
2017-10-23T12:20:00.663Z,68.90
2017-10-23T12:22:29.710Z,70.35
2017-10-23T12:24:59.666Z,73.18
2017-10-23T12:27:28.698Z,78.15
2017-10-23T12:29:58.693Z,79.99
2017-10-23T12:34:56.791Z,82.97
2017-10-23T12:37:25.821Z,84.20
2017-10-23T12:39:54.878Z,82.54
2017-10-23T12:42:23.919Z,83.09
2017-10-23T12:44:52.948Z,81.94
2017-10-23T12:47:21.989Z,82.30
2017-10-23T12:49:51.022Z,80.13
2017-10-23T12:52:20.077Z,81.22
2017-10-23T12:54:49.110Z,80.27
2017-10-23T12:57:18.232Z,80.56
2017-10-23T12:59:47.272Z,79.90
2017-10-23T13:02:16.310Z,79.05
2017-10-23T13:04:45.354Z,79.79
2017-10-23T13:07:15.019Z,83.70
2017-10-23T13:09:44.083Z,85.36
2017-10-23T13:12:13.901Z,88.99
2017-10-23T13:14:42.981Z,90.94
2017-10-23T13:17:13.794Z,91.69
2017-10-23T13:19:42.838Z,91.85
2017-10-23T13:22:12.397Z,91.86
2017-10-23T13:24:41.399Z,91.45
2017-10-23T13:27:10.431Z,91.86
2017-10-23T13:29:39.474Z,92.35
2017-10-23T13:32:08.586Z,90.77
2017-10-23T13:34:39.586Z,91.75
2017-10-23T13:37:08.606Z,91.97
2017-10-23T13:39:37.674Z,92.13
2017-10-23T13:42:06.702Z,91.92
2017-10-23T13:44:36.703Z,91.29
2017-10-23T13:47:05.726Z,91.94
2017-10-23T13:49:34.832Z,92.09
2017-10-23T13:52:04.816Z,92.14
2017-10-23T13:54:34.846Z,91.87
2017-10-23T13:57:03.898Z,92.80
2017-10-23T13:59:32.929Z,91.73
2017-10-23T14:02:01.991Z,93.03
2017-10-23T14:04:31.939Z,92.93
2017-10-23T14:07:01.022Z,92.89
2017-10-23T14:09:30.131Z,93.04
2017-10-23T14:11:59.167Z,92.54
2017-10-23T14:14:28.252Z,92.92
2017-10-23T14:16:57.276Z,92.28
2017-10-23T14:19:26.314Z,91.88
2017-10-23T14:21:56.275Z,91.71
2017-10-23T14:24:25.311Z,92.15
2017-10-23T14:26:55.295Z,90.88
2017-10-23T14:29:24.335Z,91.10
2017-10-23T14:31:54.285Z,91.36
2017-10-23T14:34:23.319Z,91.12
2017-10-23T14:36:53.311Z,91.10
2017-10-23T14:39:22.346Z,90.83
2017-10-23T14:41:51.394Z,91.62
2017-10-23T14:44:21.439Z,91.27
2017-10-23T14:46:50.466Z,91.28
2017-10-23T14:49:19.555Z,90.17
2017-10-23T14:51:48.630Z,89.46
2017-10-23T14:54:17.650Z,89.82
2017-10-23T14:56:46.690Z,89.38
2017-10-23T14:59:15.733Z,89.93
2017-10-23T15:01:45.294Z,89.17
2017-10-23T15:04:16.311Z,89.50
2017-10-23T15:06:45.707Z,89.38
2017-10-23T15:09:15.700Z,89.34
2017-10-23T15:11:45.361Z,89.38
2017-10-23T15:14:14.414Z,89.12
2017-10-23T15:16:44.077Z,89.48
2017-10-23T15:19:14.042Z,89.23
2017-10-23T15:21:43.995Z,88.97
2017-10-23T15:24:13.034Z,88.90
2017-10-23T15:26:42.277Z,89.10
2017-10-23T15:29:11.290Z,89.39
2017-10-23T15:31:40.355Z,89.09
2017-10-23T15:34:09.387Z,89.75
2017-10-23T15:36:38.421Z,89.27
2017-10-23T15:39:07.468Z,89.48
2017-10-23T15:41:36.522Z,89.55
2017-10-23T15:44:06.597Z,89.25
2017-10-23T15:46:35.602Z,89.73
2017-10-23T15:49:06.631Z,89.21
2017-10-23T15:51:35.687Z,88.91
2017-10-23T15:54:05.658Z,89.96
2017-10-23T15:56:34.694Z,89.47
2017-10-23T15:59:03.738Z,90.67
2017-10-23T16:01:33.763Z,90.51
2017-10-23T16:04:02.803Z,90.12
2017-10-23T16:06:33.803Z,89.50
2017-10-23T16:09:02.835Z,89.79
2017-10-23T16:11:31.875Z,90.07
2017-10-23T16:14:01.019Z,90.56
2017-10-23T16:16:30.044Z,90.76
2017-10-23T16:18:59.133Z,90.67
2017-10-23T16:21:28.148Z,90.90
2017-10-23T16:23:57.255Z,90.31
2017-10-23T16:26:26.296Z,91.03
2017-10-23T16:28:55.381Z,90.93
2017-10-23T16:31:24.421Z,90.77
2017-10-23T16:33:54.377Z,90.72
2017-10-23T16:36:24.438Z,91.04
2017-10-23T16:38:53.485Z,91.52
2017-10-23T16:41:22.539Z,91.58
2017-10-23T16:43:51.573Z,91.45
2017-10-23T16:46:20.607Z,91.30
2017-10-23T16:48:49.647Z,91.65
2017-10-23T16:51:18.690Z,91.05
2017-10-23T16:53:48.656Z,91.11
2017-10-23T16:56:17.684Z,90.88
2017-10-23T16:58:46.782Z,90.49
2017-10-23T17:01:15.843Z,89.82
2017-10-23T17:03:44.882Z,90.84
2017-10-23T17:06:15.190Z,90.52
2017-10-23T17:08:44.228Z,89.19
2017-10-23T17:11:13.878Z,89.63
2017-10-23T17:13:42.992Z,89.47
2017-10-23T17:16:12.034Z,90.46
2017-10-23T17:18:41.087Z,90.70
2017-10-23T17:21:10.124Z,90.41
2017-10-23T17:23:39.199Z,88.66
2017-10-23T17:26:08.241Z,89.67
2017-10-23T17:28:37.263Z,89.64
2017-10-23T17:31:06.294Z,89.46
2017-10-23T17:33:35.330Z,89.36
2017-10-23T17:36:04.376Z,90.24
2017-10-23T17:38:34.487Z,89.95
2017-10-23T17:41:03.581Z,89.75
2017-10-23T17:43:34.524Z,90.16
2017-10-23T17:46:03.583Z,89.92
2017-10-23T17:48:32.618Z,89.41
2017-10-23T17:51:01.652Z,89.12
2017-10-23T17:53:31.842Z,88.95
2017-10-23T17:56:00.875Z,88.68
2017-10-23T17:58:29.959Z,88.94
2017-10-23T18:00:58.999Z,88.63
2017-10-23T18:03:28.059Z,88.91
2017-10-23T18:05:57.092Z,88.30
2017-10-23T18:08:28.098Z,88.53
2017-10-23T18:10:57.139Z,88.39
2017-10-23T18:13:26.236Z,87.96
2017-10-23T18:15:55.309Z,88.34
2017-10-23T18:18:24.327Z,88.65
2017-10-23T18:20:54.250Z,89.15
2017-10-23T18:23:24.216Z,89.19
2017-10-23T18:25:53.257Z,89.00
2017-10-23T18:28:22.344Z,88.80
2017-10-23T18:30:51.547Z,88.66
2017-10-23T18:33:20.602Z,89.25
2017-10-23T18:35:49.658Z,89.40
2017-10-23T18:38:18.688Z,89.53
2017-10-23T18:40:47.720Z,89.43
2017-10-23T18:43:16.803Z,88.90
2017-10-23T18:45:46.038Z,89.45
2017-10-23T18:48:15.078Z,90.03
2017-10-23T18:50:44.118Z,90.40
2017-10-23T18:53:13.163Z,90.15
2017-10-23T18:55:42.216Z,90.50
2017-10-23T18:58:12.246Z,90.96
2017-10-23T19:00:41.284Z,91.38
2017-10-23T19:03:11.242Z,90.59
2017-10-23T19:05:42.291Z,90.96
2017-10-23T19:08:11.339Z,90.74
2017-10-23T19:10:40.591Z,90.57
2017-10-23T19:13:10.050Z,90.35
2017-10-23T19:15:39.086Z,90.55
2017-10-23T19:18:08.345Z,91.32
2017-10-23T19:20:37.393Z,91.19
2017-10-23T19:23:06.466Z,91.12
2017-10-23T19:25:35.499Z,90.59
2017-10-23T19:28:04.580Z,90.44
2017-10-23T19:30:33.605Z,90.29
2017-10-23T19:33:02.869Z,90.58
2017-10-23T19:35:31.923Z,90.40
2017-10-23T19:38:00.962Z,90.37
2017-10-23T19:40:29.994Z,90.03
2017-10-23T19:42:59.080Z,89.66
2017-10-23T19:45:28.132Z,89.57
2017-10-23T19:47:57.161Z,89.78
2017-10-23T19:50:26.197Z,89.88
2017-10-23T19:52:58.779Z,89.93
2017-10-23T19:55:27.860Z,90.04
2017-10-23T19:57:56.898Z,89.68
2017-10-23T20:00:26.831Z,89.90
2017-10-23T20:02:55.884Z,89.88
2017-10-23T20:05:24.929Z,90.39
2017-10-23T20:07:53.986Z,90.13
2017-10-23T20:10:23.282Z,90.36
2017-10-23T20:12:52.349Z,89.78
2017-10-23T20:15:21.407Z,89.66
2017-10-23T20:17:50.456Z,90.10
2017-10-23T20:20:19.487Z,89.56
2017-10-23T20:22:48.799Z,89.53
2017-10-23T20:25:17.803Z,89.71
2017-10-23T20:27:46.836Z,89.21
2017-10-23T20:30:16.776Z,89.02
2017-10-23T20:32:45.817Z,88.86
2017-10-23T20:35:14.850Z,88.89
2017-10-23T20:37:43.904Z,88.00
2017-10-23T20:40:12.963Z,88.51
2017-10-23T20:42:41.983Z,88.00
2017-10-23T20:45:11.076Z,88.95
2017-10-23T20:47:40.104Z,88.57
2017-10-23T20:50:09.134Z,88.58
2017-10-23T20:52:39.063Z,88.34
2017-10-23T20:55:08.112Z,87.95
2017-10-23T20:57:37.150Z,87.94
2017-10-23T21:00:06.210Z,87.66
2017-10-23T21:02:35.251Z,88.20
2017-10-23T21:05:04.335Z,88.15
2017-10-23T21:07:33.354Z,88.16
2017-10-23T21:10:02.387Z,87.94
2017-10-23T21:12:31.444Z,87.91
2017-10-23T21:15:01.422Z,87.83
2017-10-23T21:17:30.458Z,87.49
2017-10-23T21:20:01.446Z,87.75
2017-10-23T21:22:30.483Z,87.99
2017-10-23T21:24:59.546Z,87.86
2017-10-23T21:27:28.595Z,87.91
2017-10-23T21:29:59.566Z,88.17
2017-10-23T21:32:28.619Z,88.49
2017-10-23T21:34:57.652Z,88.09
2017-10-23T21:37:26.780Z,88.32
2017-10-23T21:39:56.708Z,88.21
2017-10-23T21:42:25.730Z,88.25
2017-10-23T21:45:00.925Z,88.17
2017-10-23T21:47:35.312Z,88.18
2017-10-23T21:50:09.541Z,88.16
2017-10-23T21:52:44.534Z,88.58
2017-10-23T21:55:18.448Z,87.99
2017-10-23T21:57:53.314Z,88.07
2017-10-23T22:00:32.017Z,88.24
2017-10-23T22:03:05.651Z,88.38
2017-10-23T22:05:38.354Z,88.34
2017-10-23T22:08:10.578Z,88.61
2017-10-23T22:10:42.059Z,88.46
2017-10-23T22:13:11.896Z,88.40
2017-10-23T22:15:45.686Z,88.87
2017-10-23T22:18:17.380Z,88.65
2017-10-23T22:20:50.875Z,88.83
2017-10-23T22:23:21.619Z,88.89
2017-10-23T22:25:50.689Z,88.10
2017-10-23T22:28:19.865Z,87.87
2017-10-23T22:30:50.977Z,87.92
2017-10-23T22:33:20.195Z,88.49
2017-10-23T22:35:49.429Z,88.98
2017-10-23T22:38:18.460Z,88.54
2017-10-23T22:40:47.585Z,88.12
2017-10-23T22:43:16.807Z,88.21
2017-10-23T22:45:46.054Z,87.94
2017-10-23T22:48:15.131Z,88.39
2017-10-23T22:50:45.254Z,87.97
2017-10-23T22:53:14.412Z,88.17
2017-10-23T22:55:43.862Z,88.19
2017-10-23T22:58:12.897Z,88.65
2017-10-23T23:00:41.978Z,89.00
2017-10-23T23:03:11.118Z,88.74
2017-10-23T23:05:40.259Z,88.90
2017-10-23T23:08:09.453Z,88.96
2017-10-23T23:10:39.587Z,88.89
2017-10-23T23:13:09.001Z,88.92
2017-10-23T23:15:38.116Z,88.77
2017-10-23T23:18:07.263Z,88.38
2017-10-23T23:20:36.399Z,88.61
2017-10-23T23:23:05.518Z,88.94
2017-10-23T23:25:34.548Z,89.10
2017-10-23T23:28:04.526Z,89.11
2017-10-23T23:30:33.643Z,89.62
2017-10-23T23:33:02.674Z,89.73
2017-10-23T23:35:31.702Z,89.54
2017-10-23T23:38:00.795Z,89.38
2017-10-23T23:40:29.837Z,89.80
2017-10-23T23:42:58.868Z,89.05
2017-10-23T23:45:27.898Z,89.36
2017-10-23T23:47:56.935Z,88.16
2017-10-23T23:50:25.967Z,88.16
2017-10-23T23:52:55.898Z,87.67
2017-10-23T23:55:24.943Z,87.67
2017-10-23T23:57:53.966Z,88.05
